Doynton Hard Half Marathon
20 Jan 2019

     
Click your name for detailed results

Page 1 of 9 (413 items)
PosBib NoNameGun TimeChip TimeCategoryCat PosGenderGen PosClubPace
1429Johnny SUTTLE1:28:05.61:28:05.5Sen1Male1 8.9 m/hr
280Simon BYRNE1:33:53.11:33:51.9Sen2Male2SWINDON HARRIERS 8.4 m/hr
3456Alan UREN1:35:02.21:35:01.8Sen3Male3WESTBURY HARRIERS 8.3 m/hr
479Luke BYRNE1:37:10.61:37:09.2Sen4Male4SWINDON HARRIERS 8.1 m/hr
5490Nick WILLIAMS1:37:53.41:37:53.0Sen5Male5THORNBURY RUNNING CLUB 8.0 m/hr
6184Cameron GRALEY1:38:12.11:38:10.3Sen6Male6BRISTOL UP AND RUNNERS 8.0 m/hr
7322Brendan MORONEY1:40:33.41:40:27.3Sen7Male7WESTBURY HARRIERS 7.8 m/hr
8492Kit WILSON1:40:33.41:40:28.0Sen8Male8 7.8 m/hr
9111Rob COWLARD1:41:01.01:40:59.1V401Male9THORNBURY RUNNING CLUB 7.8 m/hr
1014Stephen BAILEY1:41:23.11:41:18.0V402Male10BRISTOL & DISTRICT TRIATHLETES (BAD TRI) 7.8 m/hr
11221Luke HODSON1:42:02.41:42:01.3Sen9Male11BRISTOL UP AND RUNNERS 7.7 m/hr
12147Mark DYER1:43:01.31:42:53.1Sen10Male12STROUD AND DISTRICT ATHLETIC CLUB 7.6 m/hr
13471Rob WATKINS1:43:10.81:43:08.1V403Male13THORNBURY RUNNING CLUB 7.6 m/hr
14258Matt JOHNSTONE1:43:59.11:43:57.0V404Male14THORNBURY RUNNING CLUB 7.6 m/hr
15453Matt TUCKER1:44:13.31:44:11.2Sen11Male15UP & RUNNING BRISTOL 7.5 m/hr
16152Dan ELMES1:44:28.31:44:21.0Sen12Male16SOMER AC 7.5 m/hr
17244Dominic JACKSON1:44:34.61:44:28.1Sen13Male17 7.5 m/hr
18451Ash TUCK1:44:43.81:44:42.0Sen14Male18BITTON ROAD RUNNERS 7.5 m/hr
19341Henry ORNA1:44:53.71:44:51.4Sen15Male19THORNBURY RUNNING CLUB 7.5 m/hr
20360Chris PRALL1:45:25.41:45:22.9Sen16Male20ERME VALLEY HARRIERS 7.5 m/hr
2196Justin CLEMENTS1:46:21.51:46:18.3V405Male21 7.4 m/hr
2273Andy BUSH1:46:45.21:46:43.1Sen17Male22EMERSONS GREEN RUNNING CLUB 7.4 m/hr
23385John ROONEY1:46:59.71:46:58.6V406Male23COTSWOLD ALLRUNNERS 7.3 m/hr
24318Jon MORGAN1:47:28.51:47:27.5Sen18Male24BRISTOL UP AND RUNNERS 7.3 m/hr
2542Jack BLANCHARD1:47:29.31:47:13.9Sen19Male25 7.3 m/hr
26132Rupert DENNY1:48:30.11:48:27.1Sen20Male26 7.2 m/hr
27416Thomas SMITH1:48:34.01:48:30.3Sen21Male27EMERSONS GREEN RUNNING CLUB 7.2 m/hr
28350Daryl PHILLIPS1:48:36.81:48:35.9Sen22Male28BRISTOL & WEST AC 7.2 m/hr
29369Matthew READ1:49:05.11:49:01.8Sen23Male29DURSLEY RUNNING CLUB 7.2 m/hr
30276Mark LAMORTE1:50:00.11:49:49.4V407Male30CAERPHILLY RC 7.1 m/hr
31131Matt DENNY1:50:02.51:49:59.3Sen24Male31 7.1 m/hr
3213Naomi AYLWIN1:50:07.11:50:04.1Sen1Female1BRISTOL & WEST AC 7.1 m/hr
3323Trevor BATEY1:50:07.31:50:05.4V408Male32CHIPPENHAM HARRIERS 7.1 m/hr
34321Tom MORIARTY1:50:18.51:50:08.9Sen25Male33TOWN & COUNTRY HARRIERS 7.1 m/hr
35379Malcolm RITCHIE 1:50:18.91:50:18.0V409Male34BRISTOL & WEST AC 7.1 m/hr
36180Jim GODDEN1:50:30.01:50:26.5V501Male35THORNBURY RUNNING CLUB 7.1 m/hr
37263Gareth KEMP1:50:33.61:50:27.9V4010Male36 7.1 m/hr
38364Will PURCELL1:50:45.71:50:39.2Sen26Male37GREAT WESTERN RUNNERS 7.1 m/hr
39371Nathan REEVE1:50:53.51:50:45.7V4011Male38EMERSONS GREEN RUNNING CLUB 7.1 m/hr
4065Steven BROWN1:51:30.71:51:26.8Sen27Male39BITTON ROAD RUNNERS 7.0 m/hr
4127David BEARD1:51:46.41:51:44.2V4012Male40THORNBURY RUNNING CLUB 7.0 m/hr
4254Rob BRANCH1:52:13.21:52:07.3Sen28Male41 7.0 m/hr
43174Tommy GEORGE1:52:48.81:52:43.7V4013Male42 7.0 m/hr
44139Jonathan DOYLE1:52:55.11:52:51.0Sen29Male43EMERSONS GREEN RUNNING CLUB 7.0 m/hr
45480Paul WHITESMITH1:53:04.31:52:58.1V4014Male44 7.0 m/hr
46145David DURDEN1:53:16.41:53:12.7V502Male45DURSLEY RUNNING CLUB 6.9 m/hr
47110Jer COURT1:53:29.71:53:25.3V4015Male46EMERSONS GREEN RUNNING CLUB 6.9 m/hr
48342Laura ORNA1:53:57.01:53:49.6Sen2Female2THORNBURY RUNNING CLUB 6.9 m/hr
49249Lisa JEFFREY1:54:19.51:54:10.3V401Female3CHEPSTOW HARRIERS 6.9 m/hr
50113Richard CRAMPTON1:54:34.91:54:27.2V4016Male47STROUD AND DISTRICT ATHLETIC CLUB 6.9 m/hr
Page 1 of 9 (413 items)
   

fb